sensor_id;sensor_type;location;lat;lon;timestamp;pressure;altitude;pressure_sealevel;temperature;humidity
55187;BME280;55457;52.002;5.464;2023-04-23T00:00:59;100555.41;;;20.00;41.22
55187;BME280;55457;52.002;5.464;2023-04-23T00:03:26;100550.00;;;20.00;41.01
55187;BME280;55457;52.002;5.464;2023-04-23T00:05:56;100555.41;;;20.00;41.20
55187;BME280;55457;52.002;5.464;2023-04-23T00:08:22;100550.00;;;20.00;41.28
55187;BME280;55457;52.002;5.464;2023-04-23T00:10:48;100543.97;;;19.98;41.27
55187;BME280;55457;52.002;5.464;2023-04-23T00:13:13;100542.09;;;19.99;41.21
55187;BME280;55457;52.002;5.464;2023-04-23T00:15:39;100535.88;;;19.98;41.32
55187;BME280;55457;52.002;5.464;2023-04-23T00:18:04;100540.25;;;19.99;41.17
55187;BME280;55457;52.002;5.464;2023-04-23T00:20:30;100535.88;;;19.98;41.15
55187;BME280;55457;52.002;5.464;2023-04-23T00:22:55;100532.34;;;19.98;41.08
55187;BME280;55457;52.002;5.464;2023-04-23T00:25:20;100531.53;;;19.97;41.08
55187;BME280;55457;52.002;5.464;2023-04-23T00:27:46;100531.53;;;19.97;41.15
55187;BME280;55457;52.002;5.464;2023-04-23T00:30:12;100528.81;;;19.97;41.10
55187;BME280;55457;52.002;5.464;2023-04-23T00:32:37;100532.34;;;19.98;41.22
55187;BME280;55457;52.002;5.464;2023-04-23T00:35:03;100527.19;;;19.96;41.17
55187;BME280;55457;52.002;5.464;2023-04-23T00:37:28;100524.50;;;19.96;41.22
55187;BME280;55457;52.002;5.464;2023-04-23T00:39:54;100518.25;;;19.96;41.26
55187;BME280;55457;52.002;5.464;2023-04-23T00:42:19;100513.69;;;19.96;41.19
55187;BME280;55457;52.002;5.464;2023-04-23T00:44:45;100510.16;;;19.96;41.17
55187;BME280;55457;52.002;5.464;2023-04-23T00:47:11;100502.84;;;19.96;41.15
55187;BME280;55457;52.002;5.464;2023-04-23T00:49:37;100506.38;;;19.97;41.15
55187;BME280;55457;52.002;5.464;2023-04-23T00:52:03;100505.56;;;19.96;41.20
55187;BME280;55457;52.002;5.464;2023-04-23T00:54:30;100497.44;;;19.96;41.14
55187;BME280;55457;52.002;5.464;2023-04-23T00:56:55;100504.75;;;19.96;41.26
55187;BME280;55457;52.002;5.464;2023-04-23T00:59:24;100502.84;;;19.96;41.27
55187;BME280;55457;52.002;5.464;2023-04-23T01:01:51;100496.88;;;19.94;41.24
55187;BME280;55457;52.002;5.464;2023-04-23T01:04:17;100486.63;;;19.96;41.15
55187;BME280;55457;52.002;5.464;2023-04-23T01:06:43;100487.69;;;19.95;41.21
55187;BME280;55457;52.002;5.464;2023-04-23T01:09:11;100486.06;;;19.94;41.41
55187;BME280;55457;52.002;5.464;2023-04-23T01:11:38;100476.06;;;19.95;41.20
55187;BME280;55457;52.002;5.464;2023-04-23T01:14:04;100475.25;;;19.94;41.15
55187;BME280;55457;52.002;5.464;2023-04-23T01:16:31;100484.41;;;19.93;41.29
55187;BME280;55457;52.002;5.464;2023-04-23T01:18:56;100468.19;;;19.93;41.23
55187;BME280;55457;52.002;5.464;2023-04-23T01:21:23;100461.94;;;19.93;41.23
55187;BME280;55457;52.002;5.464;2023-04-23T01:23:49;100474.41;;;19.94;41.24
55187;BME280;55457;52.002;5.464;2023-04-23T01:26:15;100467.38;;;19.93;41.33
55187;BME280;55457;52.002;5.464;2023-04-23T01:28:43;100462.78;;;19.93;41.13
55187;BME280;55457;52.002;5.464;2023-04-23T01:31:10;100468.19;;;19.93;41.25
55187;BME280;55457;52.002;5.464;2023-04-23T01:33:35;100461.94;;;19.93;41.17
55187;BME280;55457;52.002;5.464;2023-04-23T01:36:01;100463.03;;;19.92;41.01
55187;BME280;55457;52.002;5.464;2023-04-23T01:38:28;100471.97;;;19.92;41.22
55187;BME280;55457;52.002;5.464;2023-04-23T01:40:54;100461.13;;;19.92;40.97
55187;BME280;55457;52.002;5.464;2023-04-23T01:43:21;100456.81;;;19.91;41.08
55187;BME280;55457;52.002;5.464;2023-04-23T01:45:46;100454.09;;;19.91;41.39
55187;BME280;55457;52.002;5.464;2023-04-23T01:48:12;100456.81;;;19.91;41.24
55187;BME280;55457;52.002;5.464;2023-04-23T01:50:38;100458.69;;;19.91;41.23
55187;BME280;55457;52.002;5.464;2023-04-23T01:53:04;100447.06;;;19.90;41.13
55187;BME280;55457;52.002;5.464;2023-04-23T01:55:30;100455.16;;;19.90;41.18
55187;BME280;55457;52.002;5.464;2023-04-23T01:57:56;100457.88;;;19.90;40.98
55187;BME280;55457;52.002;5.464;2023-04-23T02:00:21;100460.59;;;19.90;41.05
55187;BME280;55457;52.002;5.464;2023-04-23T02:02:47;100447.88;;;19.91;41.12
55187;BME280;55457;52.002;5.464;2023-04-23T02:05:15;100445.44;;;19.89;41.16
55187;BME280;55457;52.002;5.464;2023-04-23T02:07:43;100441.06;;;19.88;41.24
55187;BME280;55457;52.002;5.464;2023-04-23T02:10:09;100434.63;;;19.89;41.16
55187;BME280;55457;52.002;5.464;2023-04-23T02:12:35;100430.03;;;19.90;41.25
55187;BME280;55457;52.002;5.464;2023-04-23T02:15:01;100431.91;;;19.89;41.26
55187;BME280;55457;52.002;5.464;2023-04-23T02:17:27;100429.19;;;19.89;41.21
55187;BME280;55457;52.002;5.464;2023-04-23T02:19:53;100429.19;;;19.89;41.23
55187;BME280;55457;52.002;5.464;2023-04-23T02:22:20;100424.84;;;19.88;41.20
55187;BME280;55457;52.002;5.464;2023-04-23T02:24:49;100430.25;;;19.88;41.25
55187;BME280;55457;52.002;5.464;2023-04-23T02:27:15;100420.50;;;19.87;41.13
55187;BME280;55457;52.002;5.464;2023-04-23T02:29:40;100417.81;;;19.87;41.17
55187;BME280;55457;52.002;5.464;2023-04-23T02:32:05;100424.03;;;19.88;41.16
55187;BME280;55457;52.002;5.464;2023-04-23T02:34:31;100425.66;;;19.89;41.24
55187;BME280;55457;52.002;5.464;2023-04-23T02:36:56;100422.13;;;19.88;41.16
55187;BME280;55457;52.002;5.464;2023-04-23T02:39:21;100412.38;;;19.87;41.33
55187;BME280;55457;52.002;5.464;2023-04-23T02:41:47;100415.09;;;19.87;41.34
55187;BME280;55457;52.002;5.464;2023-04-23T02:44:12;100414.28;;;19.87;41.28
55187;BME280;55457;52.002;5.464;2023-04-23T02:46:37;100413.47;;;19.86;41.25
55187;BME280;55457;52.002;5.464;2023-04-23T02:49:03;100413.47;;;19.86;41.24
55187;BME280;55457;52.002;5.464;2023-04-23T02:51:29;100413.47;;;19.86;41.28
55187;BME280;55457;52.002;5.464;2023-04-23T02:53:55;100413.47;;;19.86;41.18
55187;BME280;55457;52.002;5.464;2023-04-23T02:56:20;100416.97;;;19.87;41.26
55187;BME280;55457;52.002;5.464;2023-04-23T02:58:47;100417.25;;;19.85;41.26
55187;BME280;55457;52.002;5.464;2023-04-23T03:01:13;100418.06;;;19.86;41.22
55187;BME280;55457;52.002;5.464;2023-04-23T03:03:39;100417.25;;;19.85;41.29
55187;BME280;55457;52.002;5.464;2023-04-23T03:06:05;100413.72;;;19.85;41.19
55187;BME280;55457;52.002;5.464;2023-04-23T03:08:31;100419.94;;;19.85;41.19
55187;BME280;55457;52.002;5.464;2023-04-23T03:10:56;100421.03;;;19.84;41.26
55187;BME280;55457;52.002;5.464;2023-04-23T03:13:22;100421.03;;;19.84;41.33
55187;BME280;55457;52.002;5.464;2023-04-23T03:15:50;100422.06;;;19.83;41.26
55187;BME280;55457;52.002;5.464;2023-04-23T03:18:16;100410.22;;;19.84;41.21
55187;BME280;55457;52.002;5.464;2023-04-23T03:20:41;100414.75;;;19.84;41.35
55187;BME280;55457;52.002;5.464;2023-04-23T03:23:06;100412.91;;;19.84;41.47
55187;BME280;55457;52.002;5.464;2023-04-23T03:25:32;100411.25;;;19.83;41.35
55187;BME280;55457;52.002;5.464;2023-04-23T03:27:58;100396.69;;;19.84;41.23
55187;BME280;55457;52.002;5.464;2023-04-23T03:30:24;100405.84;;;19.83;41.23
55187;BME280;55457;52.002;5.464;2023-04-23T03:32:50;100410.22;;;19.84;41.29
55187;BME280;55457;52.002;5.464;2023-04-23T03:35:15;100412.31;;;19.82;41.31
55187;BME280;55457;52.002;5.464;2023-04-23T03:37:41;100412.31;;;19.82;41.41
55187;BME280;55457;52.002;5.464;2023-04-23T03:40:08;100420.44;;;19.82;41.48
55187;BME280;55457;52.002;5.464;2023-04-23T03:42:34;100404.22;;;19.82;41.35
55187;BME280;55457;52.002;5.464;2023-04-23T03:45:00;100404.22;;;19.82;41.25
55187;BME280;55457;52.002;5.464;2023-04-23T03:47:26;100412.31;;;19.82;41.24
55187;BME280;55457;52.002;5.464;2023-04-23T03:49:51;100417.72;;;19.82;41.10
55187;BME280;55457;52.002;5.464;2023-04-23T03:52:17;100409.63;;;19.82;41.30
55187;BME280;55457;52.002;5.464;2023-04-23T03:54:42;100405.28;;;19.81;41.73
55187;BME280;55457;52.002;5.464;2023-04-23T03:57:08;100404.22;;;19.82;41.27
55187;BME280;55457;52.002;5.464;2023-04-23T03:59:34;100399.88;;;19.81;41.25
55187;BME280;55457;52.002;5.464;2023-04-23T04:02:00;100395.28;;;19.81;41.32
55187;BME280;55457;52.002;5.464;2023-04-23T04:04:28;100390.13;;;19.80;41.25
55187;BME280;55457;52.002;5.464;2023-04-23T04:06:53;100389.06;;;19.81;41.39
55187;BME280;55457;52.002;5.464;2023-04-23T04:09:18;100399.06;;;19.80;41.21
55187;BME280;55457;52.002;5.464;2023-04-23T04:11:44;100398.25;;;19.80;41.31
55187;BME280;55457;52.002;5.464;2023-04-23T04:14:09;100391.22;;;19.79;41.26
55187;BME280;55457;52.002;5.464;2023-04-23T04:16:34;100387.44;;;19.80;41.33
55187;BME280;55457;52.002;5.464;2023-04-23T04:19:00;100392.84;;;19.80;41.18
55187;BME280;55457;52.002;5.464;2023-04-23T04:21:25;100386.63;;;19.79;41.51
55187;BME280;55457;52.002;5.464;2023-04-23T04:23:52;100391.22;;;19.79;41.29
55187;BME280;55457;52.002;5.464;2023-04-23T04:26:17;100395.81;;;19.78;41.16
55187;BME280;55457;52.002;5.464;2023-04-23T04:28:43;100399.31;;;19.79;41.28
55187;BME280;55457;52.002;5.464;2023-04-23T04:31:09;100402.03;;;19.79;41.33
55187;BME280;55457;52.002;5.464;2023-04-23T04:33:34;100402.84;;;19.79;41.29
55187;BME280;55457;52.002;5.464;2023-04-23T04:36:00;100404.72;;;19.79;41.30
55187;BME280;55457;52.002;5.464;2023-04-23T04:38:26;100406.63;;;19.78;41.22
55187;BME280;55457;52.002;5.464;2023-04-23T04:40:55;100399.31;;;19.79;41.31
55187;BME280;55457;52.002;5.464;2023-04-23T04:43:24;100396.63;;;19.79;41.23
55187;BME280;55457;52.002;5.464;2023-04-23T04:45:50;100401.22;;;19.78;41.31
55187;BME280;55457;52.002;5.464;2023-04-23T04:48:16;100403.91;;;19.78;41.23
55187;BME280;55457;52.002;5.464;2023-04-23T04:50:41;100417.44;;;19.78;41.34
55187;BME280;55457;52.002;5.464;2023-04-23T04:53:06;100405.78;;;19.78;41.23
55187;BME280;55457;52.002;5.464;2023-04-23T04:55:32;100408.47;;;19.78;41.25
55187;BME280;55457;52.002;5.464;2023-04-23T04:57:57;100410.13;;;19.79;41.17
55187;BME280;55457;52.002;5.464;2023-04-23T05:00:25;100408.47;;;19.78;41.40
55187;BME280;55457;52.002;5.464;2023-04-23T05:02:53;100412.03;;;19.78;41.36
55187;BME280;55457;52.002;5.464;2023-04-23T05:05:21;100393.31;;;19.77;41.26
55187;BME280;55457;52.002;5.464;2023-04-23T05:07:47;100405.78;;;19.78;41.25
55187;BME280;55457;52.002;5.464;2023-04-23T05:10:13;100400.34;;;19.78;41.36
55187;BME280;55457;52.002;5.464;2023-04-23T05:12:39;100396.03;;;19.77;41.23
55187;BME280;55457;52.002;5.464;2023-04-23T05:15:09;100394.13;;;19.77;41.26
55187;BME280;55457;52.002;5.464;2023-04-23T05:17:35;100398.72;;;19.77;41.25
55187;BME280;55457;52.002;5.464;2023-04-23T05:20:01;100399.53;;;19.77;41.42
55187;BME280;55457;52.002;5.464;2023-04-23T05:22:26;100401.44;;;19.77;41.32
55187;BME280;55457;52.002;5.464;2023-04-23T05:24:51;100396.84;;;19.77;41.30
55187;BME280;55457;52.002;5.464;2023-04-23T05:27:17;100400.34;;;19.78;41.30
55187;BME280;55457;52.002;5.464;2023-04-23T05:29:42;100403.06;;;19.78;41.32
55187;BME280;55457;52.002;5.464;2023-04-23T05:32:08;100406.63;;;19.78;41.33
55187;BME280;55457;52.002;5.464;2023-04-23T05:34:33;100402.25;;;19.77;41.27
55187;BME280;55457;52.002;5.464;2023-04-23T05:36:58;100402.25;;;19.77;41.32
55187;BME280;55457;52.002;5.464;2023-04-23T05:39:24;100403.06;;;19.78;41.39
55187;BME280;55457;52.002;5.464;2023-04-23T05:41:49;100410.13;;;19.79;41.32
55187;BME280;55457;52.002;5.464;2023-04-23T05:44:14;100412.84;;;19.79;41.43
55187;BME280;55457;52.002;5.464;2023-04-23T05:46:40;100407.44;;;19.79;41.24
55187;BME280;55457;52.002;5.464;2023-04-23T05:49:05;100407.44;;;19.79;41.30
55187;BME280;55457;52.002;5.464;2023-04-23T05:51:30;100400.94;;;19.80;41.21
55187;BME280;55457;52.002;5.464;2023-04-23T05:53:56;100400.94;;;19.80;41.33
55187;BME280;55457;52.002;5.464;2023-04-23T05:56:21;100396.34;;;19.80;41.23
55187;BME280;55457;52.002;5.464;2023-04-23T05:58:46;100401.75;;;19.80;41.28
55187;BME280;55457;52.002;5.464;2023-04-23T06:01:12;100399.88;;;19.81;41.25
55187;BME280;55457;52.002;5.464;2023-04-23T06:03:38;100392.84;;;19.80;41.42
55187;BME280;55457;52.002;5.464;2023-04-23T06:06:06;100392.84;;;19.80;41.39
55187;BME280;55457;52.002;5.464;2023-04-23T06:08:31;100393.66;;;19.80;41.20
55187;BME280;55457;52.002;5.464;2023-04-23T06:10:57;100390.94;;;19.80;41.35
55187;BME280;55457;52.002;5.464;2023-04-23T06:13:22;100391.75;;;19.81;41.37
55187;BME280;55457;52.002;5.464;2023-04-23T06:15:48;100391.75;;;19.81;41.29
55187;BME280;55457;52.002;5.464;2023-04-23T06:18:13;100391.75;;;19.81;41.07
55187;BME280;55457;52.002;5.464;2023-04-23T06:20:38;100386.34;;;19.81;41.32
55187;BME280;55457;52.002;5.464;2023-04-23T06:23:04;100380.13;;;19.80;41.43
55187;BME280;55457;52.002;5.464;2023-04-23T06:25:30;100382.03;;;19.80;41.38
55187;BME280;55457;52.002;5.464;2023-04-23T06:27:56;100383.66;;;19.81;41.38
55187;BME280;55457;52.002;5.464;2023-04-23T06:30:22;100380.94;;;19.81;41.60
55187;BME280;55457;52.002;5.464;2023-04-23T06:32:48;100372.84;;;19.81;41.38
55187;BME280;55457;52.002;5.464;2023-04-23T06:35:13;100368.25;;;19.81;41.24
55187;BME280;55457;52.002;5.464;2023-04-23T06:37:39;100376.34;;;19.81;41.43
55187;BME280;55457;52.002;5.464;2023-04-23T06:40:04;100363.66;;;19.82;41.43
55187;BME280;55457;52.002;5.464;2023-04-23T06:42:30;100363.16;;;19.85;41.49
55187;BME280;55457;52.002;5.464;2023-04-23T06:44:56;100359.88;;;19.83;41.47
55187;BME280;55457;52.002;5.464;2023-04-23T06:47:23;100364.22;;;19.84;41.47
55187;BME280;55457;52.002;5.464;2023-04-23T06:49:49;100355.03;;;19.85;41.42
55187;BME280;55457;52.002;5.464;2023-04-23T06:52:14;100358.56;;;19.86;41.28
55187;BME280;55457;52.002;5.464;2023-04-23T06:54:39;100354.78;;;19.87;41.28
55187;BME280;55457;52.002;5.464;2023-04-23T06:57:05;100354.78;;;19.87;41.50
55187;BME280;55457;52.002;5.464;2023-04-23T06:59:30;100353.72;;;19.88;41.47
55187;BME280;55457;52.002;5.464;2023-04-23T07:01:55;100354.53;;;19.88;41.55
55187;BME280;55457;52.002;5.464;2023-04-23T07:04:21;100362.63;;;19.88;41.49
55187;BME280;55457;52.002;5.464;2023-04-23T07:06:46;100365.13;;;19.90;41.51
55187;BME280;55457;52.002;5.464;2023-04-23T07:09:11;100353.47;;;19.89;41.44
55187;BME280;55457;52.002;5.464;2023-04-23T07:11:37;100360.53;;;19.90;41.52
55187;BME280;55457;52.002;5.464;2023-04-23T07:14:02;100356.75;;;19.91;41.57
55187;BME280;55457;52.002;5.464;2023-04-23T07:16:28;100357.56;;;19.92;41.54
55187;BME280;55457;52.002;5.464;2023-04-23T07:18:57;100363.78;;;19.92;41.52
55187;BME280;55457;52.002;5.464;2023-04-23T07:21:22;100352.97;;;19.92;41.68
55187;BME280;55457;52.002;5.464;2023-04-23T07:23:51;100359.19;;;19.93;41.59
55187;BME280;55457;52.002;5.464;2023-04-23T07:26:17;100354.59;;;19.93;41.62
55187;BME280;55457;52.002;5.464;2023-04-23T07:28:42;100352.47;;;19.95;41.77
55187;BME280;55457;52.002;5.464;2023-04-23T07:31:08;100347.06;;;19.95;41.65
55187;BME280;55457;52.002;5.464;2023-04-23T07:33:33;100352.47;;;19.95;41.61
55187;BME280;55457;52.002;5.464;2023-04-23T07:35:59;100347.88;;;19.96;41.79
55187;BME280;55457;52.002;5.464;2023-04-23T07:38:24;100338.69;;;19.97;41.78
55187;BME280;55457;52.002;5.464;2023-04-23T07:40:49;100344.91;;;19.97;41.72
55187;BME280;55457;52.002;5.464;2023-04-23T07:43:15;100343.03;;;19.98;41.83
55187;BME280;55457;52.002;5.464;2023-04-23T07:45:41;100348.19;;;19.99;41.91
55187;BME280;55457;52.002;5.464;2023-04-23T07:48:06;100336.53;;;19.99;42.04
55187;BME280;55457;52.002;5.464;2023-04-23T07:50:31;100341.72;;;20.00;41.80
55187;BME280;55457;52.002;5.464;2023-04-23T07:52:57;100333.59;;;20.00;42.09
55187;BME280;55457;52.002;5.464;2023-04-23T07:55:22;100336.84;;;20.02;42.11
55187;BME280;55457;52.002;5.464;2023-04-23T07:57:47;100340.38;;;20.03;42.10
55187;BME280;55457;52.002;5.464;2023-04-23T08:00:13;100341.19;;;20.03;42.14
55187;BME280;55457;52.002;5.464;2023-04-23T08:02:39;100338.47;;;20.03;42.13
55187;BME280;55457;52.002;5.464;2023-04-23T08:05:04;100338.25;;;20.05;42.21
55187;BME280;55457;52.002;5.464;2023-04-23T08:07:30;100338.00;;;20.06;42.07
55187;BME280;55457;52.002;5.464;2023-04-23T08:09:56;100336.09;;;20.07;42.33
55187;BME280;55457;52.002;5.464;2023-04-23T08:12:27;100333.13;;;20.08;42.41
55187;BME280;55457;52.002;5.464;2023-04-23T08:14:52;100327.50;;;20.10;42.75
55187;BME280;55457;52.002;5.464;2023-04-23T08:17:17;100318.28;;;20.11;42.31
55187;BME280;55457;52.002;5.464;2023-04-23T08:19:43;100328.84;;;20.13;42.04
55187;BME280;55457;52.002;5.464;2023-04-23T08:22:08;100318.59;;;20.15;42.15
55187;BME280;55457;52.002;5.464;2023-04-23T08:24:34;100322.94;;;20.16;42.37
55187;BME280;55457;52.002;5.464;2023-04-23T08:27:00;100323.50;;;20.18;42.16
55187;BME280;55457;52.002;5.464;2023-04-23T08:29:25;100323.25;;;20.19;42.06
55187;BME280;55457;52.002;5.464;2023-04-23T08:31:51;100326.75;;;20.20;42.15
55187;BME280;55457;52.002;5.464;2023-04-23T08:34:16;100324.63;;;20.22;41.96
55187;BME280;55457;52.002;5.464;2023-04-23T08:36:42;100322.47;;;20.24;42.12
55187;BME280;55457;52.002;5.464;2023-04-23T08:39:07;100320.34;;;20.26;42.33
55187;BME280;55457;52.002;5.464;2023-04-23T08:41:38;100318.19;;;20.28;42.22
55187;BME280;55457;52.002;5.464;2023-04-23T08:44:24;100321.44;;;20.30;42.15
55187;BME280;55457;52.002;5.464;2023-04-23T08:46:52;100319.31;;;20.32;42.27
55187;BME280;55457;52.002;5.464;2023-04-23T08:49:18;100320.13;;;20.32;42.29
55187;BME280;55457;52.002;5.464;2023-04-23T08:51:53;100319.06;;;20.33;42.35
55187;BME280;55457;52.002;5.464;2023-04-23T08:54:25;100311.25;;;20.37;42.16
55187;BME280;55457;52.002;5.464;2023-04-23T08:56:52;100312.38;;;20.41;42.09
55187;BME280;55457;52.002;5.464;2023-04-23T08:59:18;100316.19;;;20.45;41.89
55187;BME280;55457;52.002;5.464;2023-04-23T09:01:47;100315.13;;;20.46;42.27
55187;BME280;55457;52.002;5.464;2023-04-23T09:04:12;100310.03;;;20.50;42.05
55187;BME280;55457;52.002;5.464;2023-04-23T09:06:41;100318.22;;;20.55;42.13
55187;BME280;55457;52.002;5.464;2023-04-23T09:09:07;100306.88;;;20.58;42.05
55187;BME280;55457;52.002;5.464;2023-04-23T09:11:35;100318.84;;;20.62;42.03
55187;BME280;55457;52.002;5.464;2023-04-23T09:14:01;100321.28;;;20.64;42.13
55187;BME280;55457;52.002;5.464;2023-04-23T09:16:27;100310.72;;;20.67;41.97
55187;BME280;55457;52.002;5.464;2023-04-23T09:18:52;100301.81;;;20.72;41.95
55187;BME280;55457;52.002;5.464;2023-04-23T09:21:19;100310.53;;;20.74;42.16
55187;BME280;55457;52.002;5.464;2023-04-23T09:23:44;100302.13;;;20.75;41.86
55187;BME280;55457;52.002;5.464;2023-04-23T09:26:18;100295.41;;;20.78;41.88
55187;BME280;55457;52.002;5.464;2023-04-23T09:28:48;100302.19;;;20.80;41.81
55187;BME280;55457;52.002;5.464;2023-04-23T09:31:14;100307.91;;;20.84;41.71
55187;BME280;55457;52.002;5.464;2023-04-23T09:33:49;100300.91;;;20.88;41.86
55187;BME280;55457;52.002;5.464;2023-04-23T09:36:15;100297.38;;;20.93;41.86
55187;BME280;55457;52.002;5.464;2023-04-23T09:38:40;100300.41;;;20.96;42.00
55187;BME280;55457;52.002;5.464;2023-04-23T09:41:22;100294.22;;;21.01;41.73
55187;BME280;55457;52.002;5.464;2023-04-23T09:43:48;100292.34;;;21.06;41.64
55187;BME280;55457;52.002;5.464;2023-04-23T09:46:13;100298.06;;;21.10;41.85
55187;BME280;55457;52.002;5.464;2023-04-23T09:48:42;100296.19;;;21.16;41.51
55187;BME280;55457;52.002;5.464;2023-04-23T09:51:07;100300.03;;;21.20;41.78
55187;BME280;55457;52.002;5.464;2023-04-23T09:53:41;100292.16;;;21.23;41.54
55187;BME280;55457;52.002;5.464;2023-04-23T09:56:07;100286.25;;;21.26;41.45
55187;BME280;55457;52.002;5.464;2023-04-23T09:58:33;100293.28;;;21.27;41.57
55187;BME280;55457;52.002;5.464;2023-04-23T10:01:08;100293.63;;;21.31;41.59
55187;BME280;55457;52.002;5.464;2023-04-23T10:03:33;100286.31;;;21.36;41.42
55187;BME280;55457;52.002;5.464;2023-04-23T10:05:59;100290.38;;;21.39;41.56
55187;BME280;55457;52.002;5.464;2023-04-23T10:08:25;100283.09;;;21.45;41.38
55187;BME280;55457;52.002;5.464;2023-04-23T10:10:51;100283.09;;;21.45;41.46
55187;BME280;55457;52.002;5.464;2023-04-23T10:13:17;100286.66;;;21.50;41.40
55187;BME280;55457;52.002;5.464;2023-04-23T10:15:45;100277.44;;;21.51;41.45
55187;BME280;55457;52.002;5.464;2023-04-23T10:18:12;100277.19;;;21.53;41.25
55187;BME280;55457;52.002;5.464;2023-04-23T10:20:38;100274.19;;;21.54;41.11
55187;BME280;55457;52.002;5.464;2023-04-23T10:23:07;100268.78;;;21.59;41.42
55187;BME280;55457;52.002;5.464;2023-04-23T10:25:34;100274.22;;;21.59;41.12
55187;BME280;55457;52.002;5.464;2023-04-23T10:28:02;100272.59;;;21.58;41.25
55187;BME280;55457;52.002;5.464;2023-04-23T10:30:29;100267.69;;;21.55;41.30
55187;BME280;55457;52.002;5.464;2023-04-23T10:32:55;100263.91;;;21.56;41.26
55187;BME280;55457;52.002;5.464;2023-04-23T10:35:21;100265.25;;;21.54;41.05
55187;BME280;55457;52.002;5.464;2023-04-23T10:37:47;100267.16;;;21.53;41.17
55187;BME280;55457;52.002;5.464;2023-04-23T10:40:18;100248.16;;;21.53;41.30
55187;BME280;55457;52.002;5.464;2023-04-23T10:42:46;100260.38;;;21.51;41.17
55187;BME280;55457;52.002;5.464;2023-04-23T10:45:16;100260.91;;;21.48;41.35
55187;BME280;55457;52.002;5.464;2023-04-23T10:47:43;100250.88;;;21.48;41.21
55187;BME280;55457;52.002;5.464;2023-04-23T10:50:26;100250.03;;;21.48;41.06
55187;BME280;55457;52.002;5.464;2023-04-23T10:52:53;100241.09;;;21.47;41.29
55187;BME280;55457;52.002;5.464;2023-04-23T10:55:20;100235.41;;;21.49;41.48
55187;BME280;55457;52.002;5.464;2023-04-23T11:00:25;100233.25;;;21.51;41.06
55187;BME280;55457;52.002;5.464;2023-04-23T11:02:50;100237.31;;;21.53;41.05
55187;BME280;55457;52.002;5.464;2023-04-23T11:05:17;100231.91;;;21.53;41.35
55187;BME280;55457;52.002;5.464;2023-04-23T11:08:01;100227.03;;;21.55;41.28
55187;BME280;55457;52.002;5.464;2023-04-23T11:10:27;100222.41;;;21.51;41.39
55187;BME280;55457;52.002;5.464;2023-04-23T11:12:54;100222.66;;;21.49;40.96
55187;BME280;55457;52.002;5.464;2023-04-23T11:15:20;100219.41;;;21.47;41.07
55187;BME280;55457;52.002;5.464;2023-04-23T11:20:13;100213.44;;;21.45;41.69
55187;BME280;55457;52.002;5.464;2023-04-23T11:22:42;100207.47;;;21.48;40.89
55187;BME280;55457;52.002;5.464;2023-04-23T11:25:18;100202.06;;;21.48;41.09
55187;BME280;55457;52.002;5.464;2023-04-23T11:27:44;100205.03;;;21.47;41.24
55187;BME280;55457;52.002;5.464;2023-04-23T11:30:24;100201.53;;;21.46;41.28
55187;BME280;55457;52.002;5.464;2023-04-23T11:32:51;100196.09;;;21.46;41.09
55187;BME280;55457;52.002;5.464;2023-04-23T11:35:26;100185.50;;;21.45;41.38
55187;BME280;55457;52.002;5.464;2023-04-23T11:37:54;100183.38;;;21.47;41.09
55187;BME280;55457;52.002;5.464;2023-04-23T11:40:21;100183.38;;;21.47;40.99
55187;BME280;55457;52.002;5.464;2023-04-23T11:42:53;100171.44;;;21.48;41.14
55187;BME280;55457;52.002;5.464;2023-04-23T11:45:24;100164.38;;;21.47;40.79
55187;BME280;55457;52.002;5.464;2023-04-23T11:47:51;100163.28;;;21.48;41.08
55187;BME280;55457;52.002;5.464;2023-04-23T11:50:30;100163.28;;;21.48;41.28
55187;BME280;55457;52.002;5.464;2023-04-23T11:53:00;100154.34;;;21.47;40.87
55187;BME280;55457;52.002;5.464;2023-04-23T11:55:28;100148.38;;;21.45;40.98
55187;BME280;55457;52.002;5.464;2023-04-23T11:57:53;100154.34;;;21.42;40.99
55187;BME280;55457;52.002;5.464;2023-04-23T12:00:22;100143.50;;;21.42;41.08
55187;BME280;55457;52.002;5.464;2023-04-23T12:02:56;100146.47;;;21.41;41.04
55187;BME280;55457;52.002;5.464;2023-04-23T12:05:33;100142.41;;;21.38;40.98
55187;BME280;55457;52.002;5.464;2023-04-23T12:08:16;100138.06;;;21.37;41.14
55187;BME280;55457;52.002;5.464;2023-04-23T12:13:15;100136.69;;;21.40;41.05
55187;BME280;55457;52.002;5.464;2023-04-23T12:15:48;100130.22;;;21.41;41.24
55187;BME280;55457;52.002;5.464;2023-04-23T12:18:16;100138.59;;;21.44;41.03
55187;BME280;55457;52.002;5.464;2023-04-23T12:20:42;100127.25;;;21.47;41.01
55187;BME280;55457;52.002;5.464;2023-04-23T12:23:07;100129.41;;;21.50;40.97
55187;BME280;55457;52.002;5.464;2023-04-23T12:25:33;100117.75;;;21.50;41.29
55187;BME280;55457;52.002;5.464;2023-04-23T12:27:59;100117.50;;;21.51;41.21
55187;BME280;55457;52.002;5.464;2023-04-23T12:30:32;100115.59;;;21.52;41.18
55187;BME280;55457;52.002;5.464;2023-04-23T12:33:02;100108.00;;;21.54;41.16
55187;BME280;55457;52.002;5.464;2023-04-23T12:35:39;100105.03;;;21.60;41.17
55187;BME280;55457;52.002;5.464;2023-04-23T12:38:05;100096.63;;;21.57;41.19
55187;BME280;55457;52.002;5.464;2023-04-23T12:40:30;100100.41;;;21.56;40.91
55187;BME280;55457;52.002;5.464;2023-04-23T12:42:55;100098.53;;;21.61;41.14
55187;BME280;55457;52.002;5.464;2023-04-23T12:45:21;100092.03;;;21.62;41.30
55187;BME280;55457;52.002;5.464;2023-04-23T12:47:47;100085.50;;;21.63;41.28
55187;BME280;55457;52.002;5.464;2023-04-23T12:50:12;100083.09;;;21.62;40.95
55187;BME280;55457;52.002;5.464;2023-04-23T12:52:38;100082.81;;;21.63;41.04
55187;BME280;55457;52.002;5.464;2023-04-23T12:55:03;100083.88;;;21.62;40.99